createdAt,value
2023-10-09T00:01:06.428Z,100753.29
2023-10-09T00:09:58.939Z,100738.19
2023-10-09T00:18:30.876Z,100728.99
2023-10-09T00:27:15.321Z,100720.74
2023-10-09T00:35:45.088Z,100717.02
2023-10-09T00:44:09.061Z,100726.25
2023-10-09T00:52:41.599Z,100723.94
2023-10-09T01:01:06.159Z,100713.13
2023-10-09T01:09:29.562Z,100696.80
2023-10-09T01:17:52.649Z,100687.16
2023-10-09T01:26:15.749Z,100692.43
2023-10-09T01:34:51.302Z,100690.88
2023-10-09T01:43:20.152Z,100686.52
2023-10-09T01:51:43.199Z,100673.57
2023-10-09T02:00:08.511Z,100657.76
2023-10-09T02:08:38.249Z,100648.73
2023-10-09T02:17:04.110Z,100651.16
2023-10-09T02:25:35.487Z,100647.73
2023-10-09T02:33:58.497Z,100654.51
2023-10-09T02:42:24.873Z,100649.58
2023-10-09T02:50:48.517Z,100653.15
2023-10-09T02:59:11.628Z,100643.73
2023-10-09T03:07:35.521Z,100645.89
2023-10-09T03:15:58.577Z,100624.60
2023-10-09T03:24:23.879Z,100613.97
2023-10-09T03:32:52.055Z,100622.05
2023-10-09T03:41:17.462Z,100615.09
2023-10-09T03:49:40.870Z,100615.92
2023-10-09T03:58:04.043Z,100616.58
2023-10-09T04:06:34.912Z,100620.48
2023-10-09T04:15:04.867Z,100614.63
2023-10-09T04:23:36.782Z,100608.63
2023-10-09T04:32:02.070Z,100613.40
2023-10-09T04:41:03.566Z,100613.90
2023-10-09T04:49:29.117Z,100610.58
2023-10-09T04:58:03.174Z,100608.21
2023-10-09T05:06:55.831Z,100586.95
2023-10-09T05:15:19.401Z,100572.79
2023-10-09T05:24:11.479Z,100559.50
2023-10-09T05:32:44.502Z,100545.61
2023-10-09T05:41:27.429Z,100549.50
2023-10-09T05:49:58.757Z,100531.52
2023-10-09T05:58:40.225Z,100521.86
2023-10-09T06:07:13.644Z,100505.44
2023-10-09T06:15:49.034Z,100509.79
2023-10-09T06:24:19.259Z,100502.46
2023-10-09T06:32:59.486Z,100499.84
2023-10-09T06:41:36.292Z,100497.73
2023-10-09T06:50:34.710Z,100502.19
2023-10-09T06:59:06.431Z,100490.92
2023-10-09T07:07:36.634Z,100492.92
2023-10-09T07:16:19.750Z,100488.16
2023-10-09T07:24:51.024Z,100485.27
2023-10-09T07:33:14.677Z,100497.61
2023-10-09T07:41:40.651Z,100498.59
2023-10-09T07:50:05.147Z,100494.29
2023-10-09T07:58:30.053Z,100494.45
2023-10-09T08:07:59.990Z,100483.69
2023-10-09T08:15:52.616Z,100479.77
2023-10-09T08:24:34.711Z,100486.98
2023-10-09T08:41:31.455Z,100474.66
2023-10-09T08:49:54.734Z,100465.09
2023-10-09T08:58:32.345Z,100456.14
2023-10-09T09:06:55.341Z,100444.78
2023-10-09T09:15:22.563Z,100426.27
2023-10-09T09:23:58.504Z,100426.91
2023-10-09T09:32:39.790Z,100417.63
2023-10-09T09:41:08.750Z,100403.56
2023-10-09T09:49:32.972Z,100394.64
2023-10-09T09:57:58.544Z,100383.09
2023-10-09T10:06:22.890Z,100358.44
2023-10-09T10:15:19.958Z,100334.76
2023-10-09T10:23:48.557Z,100321.57
2023-10-09T10:32:12.220Z,100316.52
2023-10-09T10:41:01.242Z,100306.17
2023-10-09T10:49:26.543Z,100290.84
2023-10-09T10:57:57.267Z,100293.00
2023-10-09T11:06:38.845Z,100282.13
2023-10-09T11:15:09.090Z,100270.90
2023-10-09T11:23:52.951Z,100250.50
2023-10-09T11:32:24.772Z,100250.23
2023-10-09T11:40:54.694Z,100250.17
2023-10-09T11:59:39.102Z,100250.18
2023-10-09T12:08:03.958Z,100252.70
2023-10-09T12:16:30.051Z,100248.50
2023-10-09T12:24:54.265Z,100251.08
2023-10-09T12:33:19.505Z,100238.27
2023-10-09T12:41:42.759Z,100235.80
2023-10-09T12:50:15.024Z,100230.81
2023-10-09T12:58:41.857Z,100222.44
2023-10-09T13:07:08.720Z,100230.93
2023-10-09T13:15:43.844Z,100227.72
2023-10-09T13:24:14.423Z,100218.45
2023-10-09T13:32:38.066Z,100214.08
2023-10-09T13:41:02.529Z,100210.34
2023-10-09T13:49:31.316Z,100192.77
2023-10-09T13:57:58.746Z,100186.27
2023-10-09T14:06:31.449Z,100179.69
2023-10-09T14:14:57.220Z,100175.14
2023-10-09T14:23:21.832Z,100165.64
2023-10-09T14:31:50.724Z,100153.48
2023-10-09T14:40:14.659Z,100157.20
2023-10-09T14:48:39.187Z,100170.89
2023-10-09T14:57:02.137Z,100167.10
2023-10-09T15:05:25.140Z,100163.59
2023-10-09T15:13:48.329Z,100160.35
2023-10-09T15:22:12.715Z,100163.80
2023-10-09T15:30:35.789Z,100181.02
2023-10-09T15:39:00.527Z,100180.23
2023-10-09T15:47:23.662Z,100177.63
2023-10-09T15:55:47.532Z,100191.49
2023-10-09T16:04:14.304Z,100202.04
2023-10-09T16:12:41.417Z,100211.85
2023-10-09T16:21:10.308Z,100218.43
2023-10-09T16:29:33.945Z,100219.64
2023-10-09T16:37:59.499Z,100216.52
2023-10-09T16:46:23.579Z,100216.45
2023-10-09T16:54:46.607Z,100237.50
2023-10-09T17:03:10.563Z,100246.70
2023-10-09T17:11:38.121Z,100242.75
2023-10-09T17:20:11.249Z,100250.76
2023-10-09T17:28:34.301Z,100253.56
2023-10-09T17:36:59.477Z,100254.20
2023-10-09T17:45:24.422Z,100258.45
2023-10-09T17:53:48.017Z,100263.90
2023-10-09T18:02:17.728Z,100250.84
2023-10-09T18:10:44.946Z,100254.52
2023-10-09T18:19:13.647Z,100263.17
2023-10-09T18:27:37.504Z,100269.67
2023-10-09T18:36:10.839Z,100268.76
2023-10-09T18:44:35.387Z,100281.31
2023-10-09T18:53:03.616Z,100291.23
2023-10-09T19:01:31.360Z,100297.34
2023-10-09T19:09:56.442Z,100285.11
2023-10-09T19:18:24.935Z,100278.63
2023-10-09T19:26:50.729Z,100293.24
2023-10-09T19:35:14.530Z,100287.02
2023-10-09T19:43:40.762Z,100284.33
2023-10-09T19:52:06.428Z,100279.61
2023-10-09T20:00:32.456Z,100287.73
2023-10-09T20:08:55.725Z,100294.92
2023-10-09T20:17:18.759Z,100307.42
2023-10-09T20:25:41.680Z,100317.02
2023-10-09T20:34:10.283Z,100320.09
2023-10-09T20:42:33.234Z,100309.60
2023-10-09T20:50:56.328Z,100313.02
2023-10-09T20:59:20.006Z,100317.14
2023-10-09T21:07:47.397Z,100321.59
2023-10-09T21:16:13.596Z,100319.09
2023-10-09T21:24:37.479Z,100324.14
2023-10-09T21:33:00.785Z,100339.38
2023-10-09T21:41:24.079Z,100347.38
2023-10-09T21:49:47.075Z,100353.73
2023-10-09T21:58:11.906Z,100357.26
2023-10-09T22:06:34.984Z,100355.02
2023-10-09T22:14:58.434Z,100356.73
2023-10-09T22:23:32.397Z,100350.39
2023-10-09T22:31:56.056Z,100343.75
2023-10-09T22:40:27.748Z,100341.48
2023-10-09T22:49:01.029Z,100354.02
2023-10-09T22:57:24.019Z,100356.02
2023-10-09T23:05:47.643Z,100357.45
2023-10-09T23:14:16.850Z,100359.69
2023-10-09T23:22:49.752Z,100372.09
2023-10-09T23:31:23.506Z,100377.69
2023-10-09T23:39:56.235Z,100388.64
2023-10-09T23:48:25.129Z,100392.73
2023-10-09T23:57:00.307Z,100398.44
